createdAt,value
2023-01-12T00:00:07.049Z,98231.56
2023-01-12T00:02:37.028Z,98233.19
2023-01-12T00:05:09.331Z,98230.59
2023-01-12T00:07:39.679Z,98236.28
2023-01-12T00:10:12.726Z,98228.13
2023-01-12T00:12:44.018Z,98222.78
2023-01-12T00:15:15.019Z,98223.25
2023-01-12T00:17:45.112Z,98199.97
2023-01-12T00:20:15.798Z,98196.19
2023-01-12T00:22:46.805Z,98197.97
2023-01-12T00:25:16.482Z,98212.00
2023-01-12T00:27:50.848Z,98191.16
2023-01-12T00:30:21.147Z,98193.78
2023-01-12T00:32:51.614Z,98201.28
2023-01-12T00:35:21.225Z,98198.81
2023-01-12T00:37:51.431Z,98205.97
2023-01-12T00:40:22.418Z,98203.88
2023-01-12T00:43:11.020Z,98205.84
2023-01-12T00:45:41.708Z,98211.06
2023-01-12T00:48:12.974Z,98220.19
2023-01-12T00:50:44.313Z,98217.56
2023-01-12T00:53:14.921Z,98202.28
2023-01-12T00:55:46.709Z,98215.31
2023-01-12T00:58:17.530Z,98215.13
2023-01-12T01:00:48.067Z,98220.53
2023-01-12T01:03:17.607Z,98221.97
2023-01-12T01:05:47.590Z,98228.00
2023-01-12T01:08:17.579Z,98223.78
2023-01-12T01:10:47.185Z,98227.19
2023-01-12T01:13:18.473Z,98224.91
2023-01-12T01:15:47.917Z,98229.31
2023-01-12T01:18:18.687Z,98225.72
2023-01-12T01:20:48.519Z,98231.41
2023-01-12T01:23:19.319Z,98219.22
2023-01-12T01:25:48.795Z,98224.41
2023-01-12T01:28:20.608Z,98230.59
2023-01-12T01:30:51.013Z,98222.63
2023-01-12T01:33:21.848Z,98224.75
2023-01-12T01:35:51.861Z,98224.56
2023-01-12T01:38:21.994Z,98211.56
2023-01-12T01:40:52.339Z,98197.72
2023-01-12T01:43:25.593Z,98200.50
2023-01-12T01:46:07.241Z,98196.41
2023-01-12T01:48:41.703Z,98208.47
2023-01-12T01:51:15.636Z,98209.28
2023-01-12T01:53:48.232Z,98197.72
2023-01-12T01:56:26.654Z,98209.63
2023-01-12T01:59:07.113Z,98212.03
2023-01-12T02:01:37.459Z,98196.59
2023-01-12T02:04:08.606Z,98195.16
2023-01-12T02:06:38.346Z,98179.53
2023-01-12T02:09:14.790Z,98174.94
2023-01-12T02:12:02.435Z,98182.44
2023-01-12T02:14:52.208Z,98184.69
2023-01-12T02:17:40.316Z,98190.09
2023-01-12T02:20:49.449Z,98187.28
2023-01-12T02:24:09.291Z,98172.97
2023-01-12T02:27:22.035Z,98179.00
2023-01-12T02:31:02.343Z,98177.22
2023-01-12T02:34:10.825Z,98177.22
2023-01-12T02:36:55.992Z,98182.75
2023-01-12T02:39:34.910Z,98177.56
2023-01-12T02:42:35.082Z,98176.75
2023-01-12T02:45:17.639Z,98179.53
2023-01-12T02:47:55.349Z,98170.72
2023-01-12T02:50:35.218Z,98171.06
2023-01-12T02:53:11.697Z,98161.94
2023-01-12T02:55:44.453Z,98160.28
2023-01-12T02:58:21.048Z,98158.69
2023-01-12T03:00:55.300Z,98159.47
2023-01-12T03:03:26.378Z,98156.41
2023-01-12T03:06:01.375Z,98154.47
2023-01-12T03:08:34.277Z,98148.09
2023-01-12T03:11:15.071Z,98145.50
2023-01-12T03:13:51.419Z,98153.31
2023-01-12T03:16:27.184Z,98137.53
2023-01-12T03:19:03.834Z,98136.03
2023-01-12T03:21:40.680Z,98138.50
2023-01-12T03:24:14.358Z,98134.91
2023-01-12T03:26:50.279Z,98135.88
2023-01-12T03:29:29.017Z,98130.53
2023-01-12T03:32:00.209Z,98130.53
2023-01-12T03:34:30.972Z,98129.03
2023-01-12T03:37:10.226Z,98121.09
2023-01-12T03:39:54.036Z,98115.06
2023-01-12T03:42:33.512Z,98115.69
2023-01-12T03:45:18.372Z,98109.50
2023-01-12T03:47:57.755Z,98103.94
2023-01-12T03:50:39.472Z,98114.91
2023-01-12T03:53:12.028Z,98119.44
2023-01-12T03:55:43.768Z,98122.56
2023-01-12T03:58:13.339Z,98119.31
2023-01-12T04:00:43.846Z,98112.13
2023-01-12T04:03:16.014Z,98104.16
2023-01-12T04:05:47.785Z,98090.53
2023-01-12T04:08:19.656Z,98092.94
2023-01-12T04:10:49.767Z,98091.97
2023-01-12T04:13:20.883Z,98079.28
2023-01-12T04:15:52.107Z,98080.56
2023-01-12T04:18:22.665Z,98083.81
2023-01-12T04:20:52.100Z,98075.38
2023-01-12T04:23:23.647Z,98076.97
2023-01-12T04:25:54.334Z,98076.16
2023-01-12T04:28:24.453Z,98067.88
2023-01-12T04:30:55.616Z,98079.09
2023-01-12T04:33:26.131Z,98063.94
2023-01-12T04:35:55.087Z,98068.19
2023-01-12T04:38:27.086Z,98064.59
2023-01-12T04:40:56.932Z,98071.41
2023-01-12T04:43:25.866Z,98065.59
2023-01-12T04:45:56.147Z,98074.03
2023-01-12T04:48:26.121Z,98063.78
2023-01-12T04:50:56.164Z,98069.00
2023-01-12T04:53:27.715Z,98062.34
2023-01-12T04:55:57.327Z,98061.34
2023-01-12T04:58:27.475Z,98058.59
2023-01-12T05:00:57.506Z,98043.78
2023-01-12T05:03:27.736Z,98044.75
2023-01-12T05:05:56.692Z,98030.09
2023-01-12T05:08:44.547Z,98022.28
2023-01-12T05:11:14.910Z,98017.06
2023-01-12T05:13:44.919Z,98016.09
2023-01-12T05:16:17.512Z,98007.34
2023-01-12T05:18:48.784Z,98004.75
2023-01-12T05:21:19.116Z,97994.81
2023-01-12T05:23:51.308Z,98006.03
2023-01-12T05:26:21.285Z,98004.06
2023-01-12T05:28:51.860Z,97996.09
2023-01-12T05:31:22.615Z,97992.03
2023-01-12T05:33:51.066Z,97996.09
2023-01-12T05:36:20.638Z,97990.69
2023-01-12T05:38:51.022Z,97985.31
2023-01-12T05:41:23.581Z,97982.25
2023-01-12T05:43:52.368Z,97983.22
2023-01-12T05:46:25.133Z,97982.09
2023-01-12T05:48:57.288Z,97978.00
2023-01-12T05:51:31.447Z,97979.66
2023-01-12T05:54:03.728Z,97981.91
2023-01-12T05:56:34.624Z,97980.97
2023-01-12T05:59:05.930Z,97973.63
2023-01-12T06:01:35.228Z,97973.28
2023-01-12T06:04:05.361Z,97975.06
2023-01-12T06:06:35.897Z,97973.16
2023-01-12T06:09:06.693Z,97964.03
2023-01-12T06:11:54.023Z,97965.66
2023-01-12T06:14:24.132Z,97954.78
2023-01-12T06:16:53.129Z,97953.25
2023-01-12T06:19:23.449Z,97942.84
2023-01-12T06:21:54.982Z,97937.63
2023-01-12T06:24:25.984Z,97948.50
2023-01-12T06:26:56.814Z,97944.28
2023-01-12T06:29:26.413Z,97949.31
2023-01-12T06:31:56.481Z,97948.50
2023-01-12T06:34:26.519Z,97933.41
2023-01-12T06:36:57.591Z,97907.56
2023-01-12T06:39:29.416Z,97903.16
2023-01-12T06:42:16.338Z,97922.97
2023-01-12T06:44:48.835Z,97927.22
2023-01-12T06:47:19.632Z,97942.84
2023-01-12T06:49:52.087Z,97936.81
2023-01-12T06:52:23.629Z,97931.16
2023-01-12T06:54:54.772Z,97918.59
2023-01-12T06:57:24.264Z,97919.03
2023-01-12T06:59:54.361Z,97933.53
2023-01-12T07:02:25.248Z,97937.63
2023-01-12T07:04:56.214Z,97927.69
2023-01-12T07:07:26.434Z,97924.25
2023-01-12T07:09:57.708Z,97912.50
2023-01-12T07:12:27.710Z,97919.69
2023-01-12T07:14:59.372Z,97916.56
2023-01-12T07:17:28.909Z,97898.06
2023-01-12T07:19:57.931Z,97889.06
2023-01-12T07:22:27.704Z,97904.69
2023-01-12T07:24:58.774Z,97899.50
2023-01-12T07:27:28.720Z,97901.28
2023-01-12T07:29:58.652Z,97902.72
2023-01-12T07:32:29.856Z,97882.53
2023-01-12T07:34:59.930Z,97893.94
2023-01-12T07:37:29.525Z,97910.22
2023-01-12T07:40:00.857Z,97903.63
2023-01-12T07:42:29.854Z,97904.66
2023-01-12T07:45:00.348Z,97900.75
2023-01-12T07:47:30.546Z,97898.44
2023-01-12T07:49:59.992Z,97900.88
2023-01-12T07:52:29.758Z,97894.72
2023-01-12T07:55:01.196Z,97898.25
2023-01-12T07:57:31.840Z,97906.25
2023-01-12T08:00:02.393Z,97909.53
2023-01-12T08:02:31.201Z,97885.09
2023-01-12T08:05:01.319Z,97887.53
2023-01-12T08:07:33.945Z,97893.53
2023-01-12T08:10:05.733Z,97894.16
2023-01-12T08:12:36.655Z,97899.22
2023-01-12T08:15:08.311Z,97905.59
2023-01-12T08:17:44.345Z,97900.38
2023-01-12T08:20:20.026Z,97912.41
2023-01-12T08:22:55.024Z,97925.25
2023-01-12T08:25:32.332Z,97920.06
2023-01-12T08:28:09.906Z,97918.25
2023-01-12T08:30:38.849Z,97916.63
2023-01-12T08:33:08.950Z,97912.84
2023-01-12T08:35:39.358Z,97923.13
2023-01-12T08:38:08.809Z,97922.13
2023-01-12T08:40:57.190Z,97929.94
2023-01-12T08:43:43.330Z,97923.75
2023-01-12T08:46:12.883Z,97937.41
2023-01-12T08:48:41.886Z,97930.56
2023-01-12T08:51:12.065Z,97931.38
2023-01-12T08:53:42.181Z,97933.84
2023-01-12T08:56:12.527Z,97930.22
2023-01-12T08:58:43.141Z,97944.88
2023-01-12T09:01:15.250Z,97939.66
2023-01-12T09:03:45.831Z,97937.69
2023-01-12T09:06:18.746Z,97935.06
2023-01-12T09:08:49.448Z,97941.91
2023-01-12T09:11:20.145Z,97924.28
2023-01-12T09:13:50.201Z,97929.19
2023-01-12T09:16:22.070Z,97928.16
2023-01-12T09:18:50.969Z,97925.75
2023-01-12T09:21:23.434Z,97934.03
2023-01-12T09:23:54.311Z,97922.59
2023-01-12T09:26:28.865Z,97916.78
2023-01-12T09:28:59.351Z,97924.59
2023-01-12T09:31:30.489Z,97918.75
2023-01-12T09:34:01.703Z,97934.84
2023-01-12T09:36:34.838Z,97941.03
2023-01-12T09:39:06.171Z,97939.25
2023-01-12T09:41:58.129Z,97937.47
2023-01-12T09:44:51.322Z,97940.84
2023-01-12T09:47:36.253Z,97946.50
2023-01-12T09:50:13.765Z,97954.16
2023-01-12T09:52:50.421Z,97952.19
2023-01-12T09:55:24.151Z,97961.47
2023-01-12T09:58:39.218Z,97967.50
2023-01-12T10:01:28.279Z,97964.88
2023-01-12T10:04:01.134Z,97960.66
2023-01-12T10:06:31.076Z,97969.09
2023-01-12T10:09:04.129Z,97970.72
2023-01-12T10:11:45.751Z,97967.50
2023-01-12T10:15:00.174Z,97961.09
2023-01-12T10:17:51.379Z,97966.13
2023-01-12T10:20:31.604Z,97958.16
2023-01-12T10:23:15.200Z,97959.94
2023-01-12T10:25:48.380Z,97952.75
2023-01-12T10:28:24.177Z,97956.81
2023-01-12T10:30:57.242Z,97951.75
2023-01-12T10:33:29.878Z,97949.16
2023-01-12T10:36:02.946Z,97952.13
2023-01-12T10:38:38.494Z,97947.53
2023-01-12T10:41:18.229Z,97943.94
2023-01-12T10:44:09.120Z,97939.38
2023-01-12T10:46:39.476Z,97944.91
2023-01-12T10:49:21.597Z,97947.97
2023-01-12T10:51:57.433Z,97943.41
2023-01-12T10:54:32.059Z,97929.41
2023-01-12T10:57:08.340Z,97929.03
2023-01-12T10:59:40.385Z,97925.63
2023-01-12T11:02:17.864Z,97912.06
2023-01-12T11:04:49.729Z,97915.28
2023-01-12T11:07:22.031Z,97916.72
2023-01-12T11:09:51.548Z,97914.28
2023-01-12T11:12:29.740Z,97914.47
2023-01-12T11:15:16.906Z,97918.88
2023-01-12T11:18:08.779Z,97902.06
2023-01-12T11:20:45.205Z,97898.47
2023-01-12T11:23:26.295Z,97908.72
2023-01-12T11:25:56.367Z,97910.50
2023-01-12T11:28:34.164Z,97905.13
2023-01-12T11:31:10.076Z,97912.97
2023-01-12T11:33:47.777Z,97904.78
2023-01-12T11:36:24.365Z,97899.56
2023-01-12T11:39:01.452Z,97908.16
2023-01-12T11:41:41.479Z,97909.34
2023-01-12T11:44:19.460Z,97908.00
2023-01-12T11:46:57.911Z,97898.00
2023-01-12T11:49:41.445Z,97899.81
2023-01-12T11:52:14.440Z,97899.63
2023-01-12T11:54:45.114Z,97893.97
2023-01-12T11:57:43.974Z,97871.75
2023-01-12T12:00:50.524Z,97886.22
2023-01-12T12:04:12.611Z,97894.66
2023-01-12T12:07:12.172Z,97893.84
2023-01-12T12:10:21.923Z,97896.66
2023-01-12T12:13:35.059Z,97898.09
2023-01-12T12:16:25.243Z,97887.50
2023-01-12T12:19:39.855Z,97887.94
2023-01-12T12:22:29.672Z,97889.53
2023-01-12T12:25:33.937Z,97876.31
2023-01-12T12:28:25.327Z,97881.72
2023-01-12T12:31:21.448Z,97867.69
2023-01-12T12:34:15.007Z,97863.72
2023-01-12T12:36:54.837Z,97870.00
2023-01-12T12:39:49.625Z,97874.84
2023-01-12T12:43:19.003Z,97859.19
2023-01-12T12:45:58.160Z,97864.41
2023-01-12T12:48:45.685Z,97866.56
2023-01-12T12:51:16.375Z,97850.22
2023-01-12T12:53:49.787Z,97855.50
2023-01-12T12:56:25.665Z,97864.97
2023-01-12T12:58:57.566Z,97859.72
2023-01-12T13:01:56.888Z,97861.16
2023-01-12T13:05:09.318Z,97860.78
2023-01-12T13:07:46.238Z,97865.84
2023-01-12T13:10:30.357Z,97867.25
2023-01-12T13:13:34.518Z,97861.84
2023-01-12T13:16:48.805Z,97862.28
2023-01-12T13:19:38.779Z,97849.88
2023-01-12T13:22:32.645Z,97856.50
2023-01-12T13:25:04.681Z,97852.28
2023-01-12T13:27:56.453Z,97847.69
2023-01-12T13:30:52.392Z,97848.19
2023-01-12T13:33:29.346Z,97846.38
2023-01-12T13:36:12.609Z,97847.19
2023-01-12T13:39:07.946Z,97855.91
2023-01-12T13:41:56.301Z,97843.19
2023-01-12T13:44:35.850Z,97831.78
2023-01-12T13:47:24.742Z,97833.03
2023-01-12T13:50:01.079Z,97836.25
2023-01-12T13:52:34.141Z,97842.28
2023-01-12T13:55:06.974Z,97834.75
2023-01-12T13:57:37.907Z,97842.22
2023-01-12T14:00:23.748Z,97837.38
2023-01-12T14:02:57.226Z,97840.97
2023-01-12T14:05:59.148Z,97837.97
2023-01-12T14:09:00.074Z,97837.00
2023-01-12T14:12:09.349Z,97838.25
2023-01-12T14:15:27.077Z,97849.06
2023-01-12T14:18:07.053Z,97825.56
2023-01-12T14:20:46.691Z,97843.78
2023-01-12T14:23:25.936Z,97851.41
2023-01-12T14:26:16.659Z,97866.50
2023-01-12T14:28:48.783Z,97857.88
2023-01-12T14:31:36.724Z,97861.13
2023-01-12T14:34:22.891Z,97850.84
2023-01-12T14:36:51.632Z,97855.91
2023-01-12T14:39:26.233Z,97846.44
2023-01-12T14:42:17.947Z,97847.06
2023-01-12T14:45:11.863Z,97844.81
2023-01-12T14:47:41.456Z,97835.38
2023-01-12T14:50:19.353Z,97835.81
2023-01-12T14:52:53.466Z,97836.00
2023-01-12T14:55:39.371Z,97825.66
2023-01-12T14:58:21.394Z,97828.56
2023-01-12T15:00:52.169Z,97816.47
2023-01-12T15:03:35.358Z,97812.88
2023-01-12T15:06:16.849Z,97807.66
2023-01-12T15:09:00.579Z,97811.69
2023-01-12T15:11:37.255Z,97822.94
2023-01-12T15:14:22.405Z,97815.13
2023-01-12T15:17:08.710Z,97809.25
2023-01-12T15:19:56.766Z,97812.88
2023-01-12T15:22:46.103Z,97800.00
2023-01-12T15:25:38.475Z,97809.63
2023-01-12T15:28:10.024Z,97820.06
2023-01-12T15:30:40.893Z,97814.41
2023-01-12T15:33:12.398Z,97810.38
2023-01-12T15:35:47.152Z,97811.03
2023-01-12T15:38:19.718Z,97805.16
2023-01-12T15:40:50.044Z,97813.97
2023-01-12T15:43:21.082Z,97808.41
2023-01-12T15:45:51.595Z,97799.56
2023-01-12T15:48:21.582Z,97804.78
2023-01-12T15:50:50.852Z,97804.78
2023-01-12T15:53:25.391Z,97800.38
2023-01-12T15:55:55.279Z,97805.44
2023-01-12T15:58:25.044Z,97801.19
2023-01-12T16:00:54.375Z,97798.81
2023-01-12T16:03:57.322Z,97786.78
2023-01-12T16:06:14.191Z,97786.78
2023-01-12T16:08:45.417Z,97791.56
2023-01-12T16:11:20.200Z,97782.13
2023-01-12T16:13:51.090Z,97776.28
2023-01-12T16:16:21.998Z,97782.31
2023-01-12T16:18:51.569Z,97775.84
2023-01-12T16:21:22.780Z,97773.03
2023-01-12T16:23:56.042Z,97774.06
2023-01-12T16:26:25.942Z,97775.41
2023-01-12T16:28:55.974Z,97765.41
2023-01-12T16:31:25.412Z,97763.41
2023-01-12T16:33:55.480Z,97762.59
2023-01-12T16:36:25.492Z,97764.06
2023-01-12T16:38:56.613Z,97772.22
2023-01-12T16:41:27.411Z,97755.78
2023-01-12T16:44:00.082Z,97737.31
2023-01-12T16:46:29.625Z,97755.41
2023-01-12T16:48:59.724Z,97748.13
2023-01-12T16:51:29.156Z,97747.97
2023-01-12T16:54:02.690Z,97746.50
2023-01-12T16:56:32.625Z,97750.13
2023-01-12T16:59:02.323Z,97741.94
2023-01-12T17:01:33.919Z,97749.56
2023-01-12T17:04:03.227Z,97752.16
2023-01-12T17:06:33.144Z,97755.78
2023-01-12T17:09:06.984Z,97748.56
2023-01-12T17:11:39.658Z,97729.31
2023-01-12T17:14:24.276Z,97742.53
2023-01-12T17:16:56.268Z,97730.13
2023-01-12T17:19:26.791Z,97722.09
2023-01-12T17:21:59.011Z,97713.00
2023-01-12T17:24:31.332Z,97724.09
2023-01-12T17:27:02.439Z,97723.88
2023-01-12T17:29:32.775Z,97724.09
2023-01-12T17:32:07.081Z,97731.28
2023-01-12T17:34:40.406Z,97727.69
2023-01-12T17:37:11.209Z,97724.66
2023-01-12T17:39:44.061Z,97713.22
2023-01-12T17:42:32.715Z,97719.25
2023-01-12T17:45:03.731Z,97721.66
2023-01-12T17:47:32.698Z,97719.25
2023-01-12T17:50:02.013Z,97728.69
2023-01-12T17:52:31.034Z,97735.69
2023-01-12T17:55:01.639Z,97730.13
2023-01-12T17:57:32.606Z,97720.84
2023-01-12T18:00:03.472Z,97711.22
2023-01-12T18:02:34.485Z,97711.41
2023-01-12T18:05:04.243Z,97714.03
2023-01-12T18:07:33.761Z,97711.84
2023-01-12T18:10:05.083Z,97719.03
2023-01-12T18:12:35.086Z,97720.66
2023-01-12T18:15:05.079Z,97726.50
2023-01-12T18:17:34.445Z,97721.91
2023-01-12T18:20:04.835Z,97719.03
2023-01-12T18:22:34.441Z,97724.28
2023-01-12T18:25:05.236Z,97729.09
2023-01-12T18:27:34.710Z,97729.88
2023-01-12T18:30:03.737Z,97723.84
2023-01-12T18:32:32.765Z,97717.41
2023-01-12T18:35:03.347Z,97729.88
2023-01-12T18:37:33.226Z,97730.31
2023-01-12T18:40:04.384Z,97725.88
2023-01-12T18:42:51.123Z,97714.81
2023-01-12T18:45:21.760Z,97718.44
2023-01-12T18:48:07.765Z,97720.84
2023-01-12T18:50:53.859Z,97717.25
2023-01-12T18:53:33.453Z,97713.66
2023-01-12T18:56:08.345Z,97713.66
2023-01-12T18:58:39.264Z,97700.41
2023-01-12T19:01:08.510Z,97702.41
2023-01-12T19:03:38.155Z,97693.59
2023-01-12T19:06:23.266Z,97699.59
2023-01-12T19:09:10.931Z,97696.38
2023-01-12T19:11:42.681Z,97692.78
2023-01-12T19:14:28.994Z,97678.72
2023-01-12T19:17:14.889Z,97685.56
2023-01-12T19:19:44.514Z,97677.13
2023-01-12T19:22:31.135Z,97675.25
2023-01-12T19:25:17.969Z,97683.06
2023-01-12T19:28:05.660Z,97668.22
2023-01-12T19:30:36.080Z,97682.28
2023-01-12T19:33:06.869Z,97674.25
2023-01-12T19:35:37.891Z,97662.19
2023-01-12T19:38:07.131Z,97660.38
2023-01-12T19:40:45.889Z,97654.56
2023-01-12T19:43:20.847Z,97653.75
2023-01-12T19:45:53.505Z,97661.41
2023-01-12T19:48:27.009Z,97657.59
2023-01-12T19:50:57.552Z,97665.38
2023-01-12T19:53:27.957Z,97666.19
2023-01-12T19:55:56.861Z,97657.78
2023-01-12T19:58:28.721Z,97670.66
2023-01-12T20:00:57.832Z,97670.66
2023-01-12T20:03:27.342Z,97667.06
2023-01-12T20:05:57.000Z,97683.88
2023-01-12T20:08:27.090Z,97674.88
2023-01-12T20:10:59.118Z,97675.06
2023-01-12T20:13:29.997Z,97673.66
2023-01-12T20:15:58.806Z,97662.41
2023-01-12T20:18:27.302Z,97664.03
2023-01-12T20:20:59.604Z,97665.81
2023-01-12T20:23:28.814Z,97666.41
2023-01-12T20:25:57.704Z,97663.44
2023-01-12T20:28:29.309Z,97656.41
2023-01-12T20:30:59.434Z,97658.22
2023-01-12T20:33:29.030Z,97648.59
2023-01-12T20:35:58.920Z,97652.19
2023-01-12T20:38:29.594Z,97640.31
2023-01-12T20:40:58.543Z,97647.56
2023-01-12T20:43:29.793Z,97638.16
2023-01-12T20:45:59.593Z,97646.97
2023-01-12T20:48:29.388Z,97630.13
2023-01-12T20:50:59.446Z,97630.53
2023-01-12T20:53:31.538Z,97631.31
2023-01-12T20:56:00.564Z,97627.72
2023-01-12T20:58:31.451Z,97622.69
2023-01-12T21:01:01.706Z,97622.06
2023-01-12T21:03:31.239Z,97625.09
2023-01-12T21:06:01.158Z,97622.69
2023-01-12T21:08:30.223Z,97624.50
2023-01-12T21:11:02.080Z,97615.22
2023-01-12T21:13:35.295Z,97616.84
2023-01-12T21:16:07.452Z,97612.25
2023-01-12T21:18:36.952Z,97606.03
2023-01-12T21:21:07.499Z,97606.84
2023-01-12T21:23:36.928Z,97599.00
2023-01-12T21:26:07.795Z,97598.81
2023-01-12T21:28:40.372Z,97597.19
2023-01-12T21:31:13.776Z,97600.63
2023-01-12T21:33:43.140Z,97590.19
2023-01-12T21:36:14.601Z,97588.38
2023-01-12T21:38:43.171Z,97589.19
2023-01-12T21:41:13.308Z,97577.94
2023-01-12T21:43:43.763Z,97579.53
2023-01-12T21:46:12.976Z,97577.13
2023-01-12T21:48:42.471Z,97578.75
2023-01-12T21:51:16.297Z,97580.34
2023-01-12T21:53:46.818Z,97576.94
2023-01-12T21:56:16.859Z,97581.97
2023-01-12T21:58:47.723Z,97576.31
2023-01-12T22:01:17.338Z,97572.34
2023-01-12T22:03:47.357Z,97572.34
2023-01-12T22:06:16.465Z,97569.91
2023-01-12T22:08:46.377Z,97581.38
2023-01-12T22:11:18.394Z,97572.34
2023-01-12T22:13:48.936Z,97586.38
2023-01-12T22:16:18.620Z,97579.19
2023-01-12T22:18:50.842Z,97575.13
2023-01-12T22:21:24.307Z,97580.78
2023-01-12T22:23:53.567Z,97565.06
2023-01-12T22:26:22.510Z,97576.16
2023-01-12T22:28:53.221Z,97581.16
2023-01-12T22:31:24.222Z,97571.53
2023-01-12T22:33:59.227Z,97586.19
2023-01-12T22:36:28.196Z,97580.97
2023-01-12T22:38:57.786Z,97579.34
2023-01-12T22:41:27.614Z,97577.34
2023-01-12T22:43:57.975Z,97574.75
2023-01-12T22:46:29.426Z,97574.31
2023-01-12T22:49:00.467Z,97571.53
2023-01-12T22:51:31.423Z,97577.34
2023-01-12T22:54:01.035Z,97568.31
2023-01-12T22:56:31.030Z,97573.97
2023-01-12T22:59:01.387Z,97577.97
2023-01-12T23:01:31.462Z,97574.97
2023-01-12T23:04:01.659Z,97567.94
2023-01-12T23:06:31.582Z,97557.72
2023-01-12T23:09:02.025Z,97574.97
2023-01-12T23:11:30.448Z,97568.78
2023-01-12T23:14:00.763Z,97559.94
2023-01-12T23:16:31.899Z,97568.78
2023-01-12T23:19:02.612Z,97570.56
2023-01-12T23:21:32.637Z,97559.50
2023-01-12T23:24:02.744Z,97545.66
2023-01-12T23:26:33.813Z,97552.09
2023-01-12T23:29:04.946Z,97558.34
2023-01-12T23:31:35.945Z,97550.28
2023-01-12T23:34:05.720Z,97554.72
2023-01-12T23:36:36.016Z,97559.13
2023-01-12T23:39:09.151Z,97561.72
2023-01-12T23:41:40.415Z,97547.91
2023-01-12T23:44:13.105Z,97553.91
2023-01-12T23:46:43.725Z,97547.91
2023-01-12T23:49:12.797Z,97549.47
2023-01-12T23:51:42.174Z,97546.06
2023-01-12T23:54:19.598Z,97544.47
2023-01-12T23:56:52.711Z,97541.06
2023-01-12T23:59:25.067Z,97526.22
